Time;durP1;ratioP1;P1;durP2;ratioP2;P2;SDS_P1;SDS_P2;PMS_P1;PMS_P2;Temp;Humidity;BMP_temperature;BMP_pressure;BME280_temperature;BME280_humidity;BME280_pressure;Samples;Min_cycle;Max_cycle;Signal;HPM_P1;HPM_P2
2022/03/02 00:01:32;;;;;;;45.90;30.13;;;;;;;4.49;88.50;102844.53;5022037;28;20030;-67
2022/03/02 00:03:57;;;;;;;51.35;31.73;;;;;;;4.49;87.98;102835.81;5023648;28;20068;-67
2022/03/02 00:06:23;;;;;;;52.53;32.95;;;;;;;4.50;88.23;102837.56;5023937;28;20029;-67
2022/03/02 00:08:48;;;;;;;50.80;31.63;;;;;;;4.48;88.02;102828.81;5020429;28;20048;-66
2022/03/02 00:11:16;;;;;;;51.60;32.63;;;;;;;4.47;88.22;102820.03;5020259;28;20401;-67
2022/03/02 00:13:41;;;;;;;49.20;32.17;;;;;;;4.47;88.25;102820.03;5019942;28;20037;-66
2022/03/02 00:16:08;;;;;;;53.95;31.85;;;;;;;4.47;88.36;102825.28;5021886;28;20041;-67
2022/03/02 00:18:34;;;;;;;52.88;32.67;;;;;;;4.45;88.38;102823.50;5021404;28;20612;-67
2022/03/02 00:21:00;;;;;;;51.15;32.67;;;;;;;4.44;88.07;102829.63;5022228;28;20581;-67
2022/03/02 00:23:25;;;;;;;53.13;32.03;;;;;;;4.42;88.03;102819.09;5020246;28;20032;-67
2022/03/02 00:25:50;;;;;;;50.70;31.88;;;;;;;4.42;88.52;102820.84;5020921;28;20055;-67
2022/03/02 00:28:16;;;;;;;54.60;32.67;;;;;;;4.41;88.19;102812.09;5021752;28;20055;-67
2022/03/02 00:30:42;;;;;;;55.85;33.47;;;;;;;4.39;88.35;102816.44;5021480;28;20032;-66
2022/03/02 00:33:08;;;;;;;52.22;32.95;;;;;;;4.39;88.67;102819.06;5022468;28;20029;-66
2022/03/02 00:35:34;;;;;;;52.05;32.38;;;;;;;4.39;88.85;102819.06;5020532;28;20032;-67
2022/03/02 00:38:02;;;;;;;52.88;33.33;;;;;;;4.39;88.34;102815.56;5021077;28;20048;-67
2022/03/02 00:40:29;;;;;;;50.83;32.53;;;;;;;4.38;88.40;102812.06;5022590;28;20076;-66
2022/03/02 00:42:55;;;;;;;52.20;32.72;;;;;;;4.36;88.72;102813.78;5020309;28;20025;-66
2022/03/02 00:45:20;;;;;;;56.13;32.97;;;;;;;4.37;88.95;102819.91;5021725;28;20029;-66
2022/03/02 00:47:46;;;;;;;51.13;31.27;;;;;;;4.37;89.12;102809.41;5022020;28;20840;-66
2022/03/02 00:50:12;;;;;;;49.50;31.45;;;;;;;4.36;88.90;102808.53;5022405;28;20029;-66
2022/03/02 00:52:38;;;;;;;51.58;32.40;;;;;;;4.38;88.64;102811.19;5022028;28;20539;-66
2022/03/02 00:55:04;;;;;;;55.72;32.88;;;;;;;4.37;88.61;102812.94;5020921;28;20052;-66
2022/03/02 00:57:30;;;;;;;48.85;31.13;;;;;;;4.37;88.49;102799.81;5022205;28;20472;-66
2022/03/02 00:59:56;;;;;;;55.75;33.63;;;;;;;4.37;88.48;102797.19;5021774;28;20048;-66
2022/03/02 01:02:22;;;;;;;51.47;30.63;;;;;;;4.37;88.78;102797.19;5021776;28;20947;-66
2022/03/02 01:04:47;;;;;;;52.67;34.00;;;;;;;4.39;88.55;102799.81;5019725;28;20045;-66
2022/03/02 01:07:13;;;;;;;57.70;33.88;;;;;;;4.39;88.92;102794.56;5004973;28;20069;-66
2022/03/02 01:09:38;;;;;;;53.55;33.42;;;;;;;4.38;89.17;102804.19;5024499;28;20037;-66
2022/03/02 01:12:04;;;;;;;54.00;34.08;;;;;;;4.39;89.04;102805.06;5024735;28;20044;-66
2022/03/02 01:14:30;;;;;;;52.10;33.13;;;;;;;4.37;88.68;102810.31;5025886;28;20036;-66
2022/03/02 01:16:55;;;;;;;55.20;33.90;;;;;;;4.37;88.72;102807.69;5024416;28;20086;-66
2022/03/02 01:19:21;;;;;;;58.20;33.25;;;;;;;4.36;88.84;102805.91;5024179;28;20483;-66
2022/03/02 01:21:47;;;;;;;53.70;32.80;;;;;;;4.35;89.26;102805.03;5025375;28;20480;-66
2022/03/02 01:24:13;;;;;;;55.28;32.92;;;;;;;4.34;88.94;102805.91;5026316;28;20028;-66
2022/03/02 01:26:38;;;;;;;60.53;36.38;;;;;;;4.36;89.36;102798.03;5024930;28;20549;-66
2022/03/02 01:29:04;;;;;;;59.53;33.92;;;;;;;4.33;89.06;102804.16;5025506;28;20033;-66
2022/03/02 01:31:30;;;;;;;53.42;32.35;;;;;;;4.33;88.89;102800.63;5025684;28;20035;-66
2022/03/02 01:33:55;;;;;;;54.35;33.78;;;;;;;4.31;89.34;102791.88;5025479;28;20418;-66
2022/03/02 01:36:22;;;;;;;56.67;33.15;;;;;;;4.30;89.50;102793.59;5001626;28;21749;-66
2022/03/02 01:38:48;;;;;;;58.38;34.08;;;;;;;4.29;89.19;102781.38;5011205;28;20143;-66
2022/03/02 01:41:15;;;;;;;56.40;34.28;;;;;;;4.29;89.60;102775.22;5026303;28;20045;-66
2022/03/02 01:43:40;;;;;;;56.30;33.38;;;;;;;4.27;89.23;102777.84;5023960;28;20086;-66
2022/03/02 01:46:06;;;;;;;56.70;34.50;;;;;;;4.27;89.14;102785.72;5019698;28;20427;-66
2022/03/02 01:48:32;;;;;;;58.15;34.55;;;;;;;4.27;89.42;102771.72;5025706;28;20029;-66
2022/03/02 01:50:57;;;;;;;53.42;33.47;;;;;;;4.26;89.24;102772.59;5025445;28;20396;-66
2022/03/02 01:53:23;;;;;;;59.15;34.75;;;;;;;4.25;89.53;102774.31;5024387;28;20041;-66
2022/03/02 01:55:49;;;;;;;57.00;33.97;;;;;;;4.25;89.81;102773.44;5022516;28;20124;-66
2022/03/02 01:58:14;;;;;;;56.47;34.20;;;;;;;4.24;89.39;102776.94;5024969;28;20033;-66
2022/03/02 02:00:40;;;;;;;56.85;33.05;;;;;;;4.23;89.88;102773.41;5022931;28;20526;-66
2022/03/02 02:03:05;;;;;;;54.80;33.25;;;;;;;4.22;89.94;102763.78;5025122;28;20381;-66
2022/03/02 02:05:31;;;;;;;57.30;33.95;;;;;;;4.21;89.81;102755.03;5025592;28;20029;-66
2022/03/02 02:07:56;;;;;;;57.55;33.40;;;;;;;4.20;89.63;102755.03;5025232;28;20091;-66
2022/03/02 02:10:22;;;;;;;55.20;33.47;;;;;;;4.19;90.04;102755.88;5026341;28;20491;-66
2022/03/02 02:12:47;;;;;;;53.28;32.83;;;;;;;4.18;90.18;102747.16;5024474;28;20027;-66
2022/03/02 02:15:13;;;;;;;59.35;34.72;;;;;;;4.18;90.10;102755.00;5024978;28;20033;-66
2022/03/02 02:17:41;;;;;;;59.50;35.15;;;;;;;4.19;90.08;102751.53;5022990;28;20053;-67
2022/03/02 02:20:07;;;;;;;56.28;32.92;;;;;;;4.18;89.60;102749.78;5024310;28;20037;-66
2022/03/02 02:22:40;;;;;;;57.22;33.25;;;;;;;4.18;89.63;102743.63;5023603;28;20112;-67
2022/03/02 02:25:06;;;;;;;61.47;33.95;;;;;;;4.17;90.25;102750.63;5024741;28;20091;-66
2022/03/02 02:27:32;;;;;;;56.97;33.05;;;;;;;4.17;89.54;102745.41;5023013;28;20040;-66
2022/03/02 02:29:58;;;;;;;57.97;33.88;;;;;;;4.16;89.91;102738.41;5023391;28;20488;-66
2022/03/02 02:32:24;;;;;;;57.55;34.38;;;;;;;4.15;89.73;102731.38;5012457;28;20122;-66
2022/03/02 02:34:50;;;;;;;55.60;34.28;;;;;;;4.15;89.66;102734.00;5023654;28;20112;-66
2022/03/02 02:37:15;;;;;;;53.25;32.30;;;;;;;4.15;89.67;102738.38;5023333;28;20059;-66
2022/03/02 02:39:41;;;;;;;56.17;33.08;;;;;;;4.14;90.32;102732.22;5019069;28;20044;-66
2022/03/02 02:42:08;;;;;;;58.95;33.13;;;;;;;4.12;89.87;102730.44;5024456;28;20048;-66
2022/03/02 02:44:35;;;;;;;59.58;32.78;;;;;;;4.08;89.71;102730.44;5024731;28;20436;-66
2022/03/02 02:47:01;;;;;;;58.80;34.53;;;;;;;4.08;89.74;102727.81;5023792;28;20636;-66
2022/03/02 02:49:26;;;;;;;59.95;33.42;;;;;;;4.07;89.80;102730.41;5022217;28;20036;-67
2022/03/02 02:51:53;;;;;;;55.05;33.13;;;;;;;4.06;90.17;102736.50;5024608;28;20029;-66
2022/03/02 02:54:22;;;;;;;58.60;35.45;;;;;;;4.04;89.79;102736.47;5023954;28;20056;-66
2022/03/02 02:56:48;;;;;;;57.42;33.67;;;;;;;4.04;89.80;102733.00;5024806;28;20044;-66
2022/03/02 02:59:14;;;;;;;62.00;34.65;;;;;;;4.01;89.93;102725.09;5023689;28;20041;-66
2022/03/02 03:01:39;;;;;;;56.80;34.00;;;;;;;4.01;90.05;102727.69;5024141;28;20032;-66
2022/03/02 03:04:06;;;;;;;59.90;34.28;;;;;;;3.99;90.02;102727.72;5024041;28;20033;-66
2022/03/02 03:06:33;;;;;;;57.10;34.75;;;;;;;3.99;90.01;102724.19;5024214;28;20045;-66
2022/03/02 03:08:58;;;;;;;60.45;34.28;;;;;;;3.96;89.71;102724.16;5023132;28;20167;-66
2022/03/02 03:11:24;;;;;;;58.58;34.28;;;;;;;3.94;89.96;102718.91;5023240;28;20055;-66
2022/03/02 03:13:49;;;;;;;61.22;34.70;;;;;;;3.92;89.38;102723.25;5024346;28;20479;-66
2022/03/02 03:16:15;;;;;;;63.97;35.00;;;;;;;3.91;89.35;102721.47;5023372;28;20037;-66
2022/03/02 03:18:40;;;;;;;62.00;34.47;;;;;;;3.87;89.79;102711.81;5024193;28;20065;-66
2022/03/02 03:21:06;;;;;;;59.85;34.35;;;;;;;3.85;89.79;102718.75;5023859;28;20044;-66
2022/03/02 03:23:31;;;;;;;59.33;33.97;;;;;;;3.84;89.39;102725.75;5023059;28;20033;-66
2022/03/02 03:25:57;;;;;;;60.20;34.97;;;;;;;3.81;89.30;102720.47;5024999;28;20028;-66
2022/03/02 03:28:23;;;;;;;63.10;35.42;;;;;;;3.78;89.35;102720.44;5022842;28;20022;-66
2022/03/02 03:30:48;;;;;;;60.75;34.70;;;;;;;3.75;89.62;102721.28;5023358;28;20037;-66
2022/03/02 03:33:14;;;;;;;59.97;33.45;;;;;;;3.72;89.82;102717.72;5024675;28;20028;-66
2022/03/02 03:35:40;;;;;;;65.05;34.50;;;;;;;3.67;89.38;102721.16;5024325;28;20033;-66
2022/03/02 03:38:05;;;;;;;56.47;32.60;;;;;;;3.63;89.59;102718.47;5022895;28;20059;-66
2022/03/02 03:40:31;;;;;;;60.95;35.13;;;;;;;3.60;89.78;102715.84;5022876;28;20398;-66
2022/03/02 03:42:57;;;;;;;61.13;33.45;;;;;;;3.56;89.30;102714.91;5021405;28;20044;-66
2022/03/02 03:45:22;;;;;;;65.63;35.47;;;;;;;3.52;89.05;102714.00;5023234;28;20040;-66
2022/03/02 03:47:48;;;;;;;59.03;33.90;;;;;;;3.49;89.20;102713.06;5022604;28;20028;-66
2022/03/02 03:50:15;;;;;;;59.10;34.08;;;;;;;3.45;89.62;102713.88;5023259;28;20025;-66
2022/03/02 03:52:41;;;;;;;62.03;34.70;;;;;;;3.42;89.36;102706.84;5027716;28;20405;-66
2022/03/02 03:55:08;;;;;;;60.47;34.53;;;;;;;3.39;89.41;102710.28;5023099;28;20427;-66
2022/03/02 03:57:34;;;;;;;60.53;34.55;;;;;;;3.35;89.40;102705.88;5021192;28;20483;-66
2022/03/02 03:59:59;;;;;;;65.35;34.80;;;;;;;3.32;89.34;102705.84;5021995;28;20045;-66
2022/03/02 04:02:25;;;;;;;60.03;34.35;;;;;;;3.28;89.25;102713.63;5023674;28;20060;-66
2022/03/02 04:04:51;;;;;;;64.57;35.13;;;;;;;3.24;89.40;102708.34;5022952;28;20484;-66
2022/03/02 04:07:16;;;;;;;66.38;35.80;;;;;;;3.21;89.42;102713.53;5022150;28;20141;-66
2022/03/02 04:09:42;;;;;;;65.82;36.40;;;;;;;3.18;89.13;102712.59;5022757;28;20075;-66
2022/03/02 04:12:07;;;;;;;69.63;36.30;;;;;;;3.14;89.72;102723.91;5023301;28;20366;-66
2022/03/02 04:14:33;;;;;;;73.55;38.00;;;;;;;3.08;89.21;102712.47;5023322;28;20033;-66
2022/03/02 04:16:58;;;;;;;70.18;36.97;;;;;;;3.04;89.55;102713.25;5023026;28;20036;-66
2022/03/02 04:19:24;;;;;;;72.97;37.60;;;;;;;3.00;89.42;102701.00;5022678;28;20244;-66
2022/03/02 04:21:49;;;;;;;66.93;36.53;;;;;;;2.96;89.69;102696.56;5022789;28;22182;-66
2022/03/02 04:24:15;;;;;;;71.43;37.88;;;;;;;2.92;89.78;102694.75;5021104;28;20280;-66
2022/03/02 04:26:40;;;;;;;72.53;38.53;;;;;;;2.90;89.91;102696.47;5022352;28;20111;-66
2022/03/02 04:29:06;;;;;;;77.85;39.47;;;;;;;2.85;89.74;102697.25;5022354;28;20072;-66
2022/03/02 04:31:31;;;;;;;73.18;38.88;;;;;;;2.82;89.90;102698.94;5009642;28;20037;-67
2022/03/02 04:33:57;;;;;;;74.95;38.58;;;;;;;2.78;90.08;102692.78;5022506;28;20730;-66
2022/03/02 04:36:23;;;;;;;70.22;36.38;;;;;;;2.74;89.92;102690.09;5017269;28;20131;-66
2022/03/02 04:38:48;;;;;;;74.10;39.10;;;;;;;2.71;90.12;102691.81;5022435;28;20143;-66
2022/03/02 04:41:14;;;;;;;75.07;40.38;;;;;;;2.69;90.17;102698.75;5020433;28;20049;-66
2022/03/02 04:43:39;;;;;;;78.82;40.35;;;;;;;2.66;90.11;102689.97;5022581;28;20078;-66
2022/03/02 04:46:05;;;;;;;78.32;39.83;;;;;;;2.62;90.18;102683.78;5022260;28;20239;-66
2022/03/02 04:48:31;;;;;;;77.05;39.90;;;;;;;2.60;90.20;102685.50;5037006;28;20036;-66
2022/03/02 04:50:57;;;;;;;79.50;40.10;;;;;;;2.56;90.25;102687.19;5020561;28;20044;-66
2022/03/02 04:53:23;;;;;;;73.32;39.13;;;;;;;2.53;90.33;102681.00;5022430;28;20649;-66
2022/03/02 04:55:49;;;;;;;82.65;40.65;;;;;;;2.50;90.38;102680.97;5021360;28;20100;-66
2022/03/02 04:58:15;;;;;;;82.63;40.42;;;;;;;2.47;90.44;102676.56;5007448;28;20786;-66
2022/03/02 05:00:40;;;;;;;77.65;38.75;;;;;;;2.43;90.62;102667.78;5020330;28;21449;-66
2022/03/02 05:03:06;;;;;;;78.60;39.38;;;;;;;2.41;90.57;102666.00;5021644;28;20036;-65
2022/03/02 05:05:35;;;;;;;79.35;38.90;;;;;;;2.38;90.51;102669.44;5019546;28;20033;-66
2022/03/02 05:08:00;;;;;;;74.93;38.60;;;;;;;2.36;90.54;102660.69;5021889;28;20044;-66
2022/03/02 05:10:26;;;;;;;70.50;39.17;;;;;;;2.36;90.61;102667.63;5021179;28;20542;-65
2022/03/02 05:12:51;;;;;;;81.47;40.22;;;;;;;2.33;90.78;102663.22;5022047;28;20128;-66
2022/03/02 05:15:19;;;;;;;75.45;39.22;;;;;;;2.31;90.49;102652.75;5021101;28;20029;-66
2022/03/02 05:17:45;;;;;;;75.82;39.85;;;;;;;2.29;90.82;102662.28;5018822;28;20032;-66
2022/03/02 05:20:12;;;;;;;78.72;40.08;;;;;;;2.27;90.75;102652.66;5021910;28;20368;-66
2022/03/02 05:22:39;;;;;;;78.85;39.80;;;;;;;2.24;90.73;102658.72;5015076;28;20021;-66
2022/03/02 05:25:06;;;;;;;74.07;38.75;;;;;;;2.21;91.01;102658.66;5021906;28;20071;-66
2022/03/02 05:27:31;;;;;;;76.85;39.00;;;;;;;2.19;90.78;102652.53;5021716;28;20973;-66
2022/03/02 05:29:57;;;;;;;78.22;40.90;;;;;;;2.17;91.19;102668.19;5019963;28;20039;-66
2022/03/02 05:32:23;;;;;;;83.25;42.15;;;;;;;2.15;91.14;102664.66;5021971;28;20416;-66
2022/03/02 05:34:48;;;;;;;77.57;40.17;;;;;;;2.13;90.94;102661.13;5021125;28;20043;-66
2022/03/02 05:37:14;;;;;;;75.75;39.67;;;;;;;2.12;91.12;102653.28;5022042;28;20095;-66
2022/03/02 05:39:39;;;;;;;73.43;38.65;;;;;;;2.11;91.35;102651.50;5023092;28;20178;-66
2022/03/02 05:42:05;;;;;;;82.22;40.72;;;;;;;2.08;91.11;102648.84;5021725;28;20037;-66
2022/03/02 05:44:31;;;;;;;75.82;37.72;;;;;;;2.06;91.35;102646.19;5022688;28;20037;-66
2022/03/02 05:46:57;;;;;;;77.85;39.42;;;;;;;2.04;91.49;102655.72;5020799;28;20061;-66
2022/03/02 05:49:22;;;;;;;79.95;41.25;;;;;;;2.02;91.47;102658.31;5022834;28;20566;-66
2022/03/02 05:51:48;;;;;;;79.97;39.38;;;;;;;1.99;91.54;102655.66;5022083;28;20041;-66
2022/03/02 05:54:13;;;;;;;76.13;39.15;;;;;;;1.97;91.45;102649.50;5021709;28;20064;-65
2022/03/02 05:56:39;;;;;;;77.07;39.08;;;;;;;1.95;91.57;102643.38;5021884;28;20049;-66
2022/03/02 05:59:10;;;;;;;81.25;40.75;;;;;;;1.93;91.60;102647.69;5025052;28;20281;-66
2022/03/02 06:01:37;;;;;;;75.47;39.63;;;;;;;1.92;91.77;102643.31;5025295;28;20037;-66
2022/03/02 06:04:03;;;;;;;73.57;39.22;;;;;;;1.89;91.61;102646.75;5025358;28;20071;-66
2022/03/02 06:06:30;;;;;;;75.95;40.38;;;;;;;1.88;91.90;102655.44;5025012;28;20064;-66
2022/03/02 06:08:56;;;;;;;79.55;41.20;;;;;;;1.86;91.57;102651.03;5024805;28;20030;-66
2022/03/02 06:11:22;;;;;;;77.95;39.45;;;;;;;1.84;91.67;102652.72;5024712;28;20532;-65
2022/03/02 06:13:48;;;;;;;80.00;40.55;;;;;;;1.82;91.68;102657.03;5025326;28;20544;-66
2022/03/02 06:16:14;;;;;;;81.53;41.30;;;;;;;1.79;91.71;102655.22;5023774;28;20601;-66
2022/03/02 06:18:40;;;;;;;80.57;40.67;;;;;;;1.79;91.67;102660.47;5024757;28;20486;-65
2022/03/02 06:21:05;;;;;;;74.38;38.78;;;;;;;1.77;92.00;102662.16;5025240;28;20029;-65
2022/03/02 06:23:32;;;;;;;70.97;38.00;;;;;;;1.76;91.84;102661.28;5025220;28;20035;-65
2022/03/02 06:25:57;;;;;;;79.72;40.92;;;;;;;1.76;91.87;102661.28;5023580;28;20400;-66
2022/03/02 06:28:24;;;;;;;78.30;39.80;;;;;;;1.74;92.01;102665.59;5024230;28;20025;-66
2022/03/02 06:30:49;;;;;;;73.35;37.97;;;;;;;1.73;92.06;102666.44;5023712;28;20044;-65
2022/03/02 06:33:20;;;;;;;71.35;38.63;;;;;;;1.72;92.04;102677.75;5025171;28;20045;-65
2022/03/02 06:35:47;;;;;;;71.82;38.28;;;;;;;1.72;92.05;102675.13;5023469;28;20422;-65
2022/03/02 06:38:13;;;;;;;74.22;39.35;;;;;;;1.72;92.00;102675.13;5024593;28;20041;-66
2022/03/02 06:40:40;;;;;;;75.13;40.08;;;;;;;1.70;91.84;102676.81;5025924;28;20628;-65
2022/03/02 06:43:09;;;;;;;78.68;38.40;;;;;;;1.68;91.92;102675.91;5022685;28;20033;-66
2022/03/02 06:45:47;;;;;;;75.05;39.55;;;;;;;1.68;91.80;102688.97;5009464;28;20057;-65
2022/03/02 06:48:18;;;;;;;70.10;39.22;;;;;;;1.67;92.25;102681.97;5022589;28;20368;-65
2022/03/02 06:50:44;;;;;;;70.43;37.67;;;;;;;1.67;92.03;102692.44;5022977;28;20041;-66
2022/03/02 06:53:14;;;;;;;76.93;39.90;;;;;;;1.65;92.26;102685.41;5024173;28;20029;-66
2022/03/02 06:55:41;;;;;;;79.13;41.45;;;;;;;1.65;92.07;102691.53;5025324;28;20132;-66
2022/03/02 06:58:10;;;;;;;76.00;39.72;;;;;;;1.65;92.19;102686.31;5023631;28;21057;-66
2022/03/02 07:00:36;;;;;;;73.13;39.38;;;;;;;1.66;92.34;102693.28;5021958;28;20215;-66
2022/03/02 07:03:07;;;;;;;72.55;40.47;;;;;;;1.66;92.37;102693.28;5024313;28;20029;-66
2022/03/02 07:05:33;;;;;;;73.68;39.95;;;;;;;1.66;92.16;102695.00;5024079;28;20835;-65
2022/03/02 07:08:01;;;;;;;71.13;39.80;;;;;;;1.67;92.24;102694.16;5024062;28;20503;-66
2022/03/02 07:10:26;;;;;;;69.18;37.35;;;;;;;1.67;92.65;102695.03;5023133;28;20338;-65
2022/03/02 07:12:52;;;;;;;74.20;37.85;;;;;;;1.68;92.56;102698.56;5024939;28;20499;-65
2022/03/02 07:15:18;;;;;;;73.65;39.50;;;;;;;1.69;92.51;102705.53;5022940;28;20033;-66
2022/03/02 07:17:43;;;;;;;71.03;38.78;;;;;;;1.69;92.40;102711.63;5024742;28;20060;-65
2022/03/02 07:20:11;;;;;;;68.72;38.55;;;;;;;1.70;92.32;102708.16;5021704;28;20410;-66
2022/03/02 07:22:43;;;;;;;71.80;38.58;;;;;;;1.71;92.59;102699.50;5021149;28;20033;-65
2022/03/02 07:25:15;;;;;;;73.03;39.63;;;;;;;1.72;92.59;102703.88;5021739;28;20475;-65
2022/03/02 07:27:41;;;;;;;75.50;40.00;;;;;;;1.73;92.76;102705.63;5012433;28;20913;-66
2022/03/02 07:30:08;;;;;;;78.13;39.67;;;;;;;1.75;92.70;102700.44;5021511;28;20573;-65
2022/03/02 07:32:36;;;;;;;71.95;39.95;;;;;;;1.78;92.48;102694.41;5023535;28;20031;-65
2022/03/02 07:35:04;;;;;;;72.28;38.08;;;;;;;1.82;92.59;102706.66;5023670;28;20942;-65
2022/03/02 07:37:30;;;;;;;70.13;38.33;;;;;;;1.83;92.53;102703.19;5023916;28;20367;-65
2022/03/02 07:39:56;;;;;;;75.80;39.67;;;;;;;1.88;92.48;102704.19;5018484;28;20047;-65
2022/03/02 07:42:22;;;;;;;68.25;37.78;;;;;;;1.90;92.67;102705.09;5021304;28;20032;-65
2022/03/02 07:44:49;;;;;;;72.05;39.75;;;;;;;1.94;92.78;102709.53;5022558;28;20037;-70
2022/03/02 07:47:16;;;;;;;68.80;37.15;;;;;;;1.96;92.62;102710.44;5019136;28;20028;-66
2022/03/02 07:49:41;;;;;;;67.55;38.50;;;;;;;2.00;92.56;102716.59;5022315;28;20036;-66
2022/03/02 07:52:09;;;;;;;63.10;37.50;;;;;;;2.03;92.60;102709.72;5022904;28;20460;-67
2022/03/02 07:54:37;;;;;;;67.57;38.38;;;;;;;2.06;92.84;102711.50;5022604;28;20025;-66
2022/03/02 07:57:04;;;;;;;66.88;37.28;;;;;;;2.09;92.48;102715.91;5022178;28;20038;-66
2022/03/02 07:59:37;;;;;;;69.00;37.55;;;;;;;2.12;92.60;102708.16;5018828;28;20090;-66
2022/03/02 08:02:03;;;;;;;;;;;;;;;2.14;92.52;102703.84;5020229;28;20032;-66
2022/03/02 08:04:30;;;;;;;66.82;35.88;;;;;;;2.15;92.55;102701.25;5022018;28;19966;-66
2022/03/02 08:06:56;;;;;;;69.68;37.05;;;;;;;2.20;92.64;102700.44;5022397;28;20041;-67
2022/03/02 08:09:21;;;;;;;67.00;36.60;;;;;;;2.22;92.55;102699.63;5022480;28;20487;-66
2022/03/02 08:11:47;;;;;;;66.53;36.97;;;;;;;2.23;92.58;102698.78;5021938;28;20025;-66
2022/03/02 08:14:13;;;;;;;64.55;36.63;;;;;;;2.28;92.32;102704.09;5021520;28;20057;-65
2022/03/02 08:16:38;;;;;;;62.47;36.33;;;;;;;2.30;92.55;102705.88;5023522;28;20033;-65
2022/03/02 08:19:05;;;;;;;66.15;35.05;;;;;;;2.34;92.35;102695.50;5021080;28;20029;-65
2022/03/02 08:21:32;;;;;;;64.97;36.00;;;;;;;2.37;92.35;102699.03;5021720;28;20516;-65
2022/03/02 08:24:00;;;;;;;65.72;37.92;;;;;;;2.41;92.60;102692.13;5022760;28;20033;-65
2022/03/02 08:26:26;;;;;;;67.30;37.05;;;;;;;2.43;92.41;102690.41;5021378;28;20148;-65
2022/03/02 08:28:55;;;;;;;63.28;36.25;;;;;;;2.48;92.32;102703.56;5022499;28;20033;-65
2022/03/02 08:31:24;;;;;;;65.93;36.67;;;;;;;2.52;92.27;102700.19;5020520;28;20102;-65
2022/03/02 08:33:51;;;;;;;63.63;34.88;;;;;;;2.54;92.13;102699.34;5022675;28;20517;-65
2022/03/02 08:36:21;;;;;;;64.65;35.78;;;;;;;2.58;92.37;102695.91;5027937;28;20138;-66
2022/03/02 08:38:51;;;;;;;65.80;36.42;;;;;;;2.63;92.27;102698.66;5022841;28;20037;-65
2022/03/02 08:41:18;;;;;;;64.10;36.38;;;;;;;2.67;92.42;102702.19;5023397;28;20025;-65
2022/03/02 08:43:45;;;;;;;68.30;36.58;;;;;;;2.71;92.44;102698.75;5022055;28;20120;-65
2022/03/02 08:46:11;;;;;;;63.25;36.78;;;;;;;2.74;91.93;102701.44;5022627;28;20037;-65
2022/03/02 08:48:36;;;;;;;68.53;36.70;;;;;;;2.79;91.96;102694.53;5020702;28;20102;-65
2022/03/02 08:51:02;;;;;;;60.70;34.53;;;;;;;2.81;92.10;102687.59;5022729;28;20095;-65
2022/03/02 08:53:30;;;;;;;64.40;34.00;;;;;;;2.85;92.08;102692.00;5022621;28;20142;-65
2022/03/02 08:55:59;;;;;;;61.35;35.53;;;;;;;2.90;92.17;102691.22;5022543;28;20417;-66
2022/03/02 08:58:26;;;;;;;65.75;36.55;;;;;;;2.93;92.23;102686.03;5021266;28;20033;-66
2022/03/02 09:00:52;;;;;;;65.05;36.35;;;;;;;2.96;92.07;102678.25;5020573;28;20259;-65
2022/03/02 09:03:17;;;;;;;62.20;36.58;;;;;;;2.99;91.82;102680.91;5021856;28;20518;-66
2022/03/02 09:05:43;;;;;;;66.38;35.75;;;;;;;3.03;91.79;102671.34;5020036;28;20071;-65
2022/03/02 09:08:08;;;;;;;61.13;34.85;;;;;;;3.06;91.97;102677.50;5023022;28;20094;-65
2022/03/02 09:10:37;;;;;;;62.20;35.15;;;;;;;3.10;91.71;102679.34;5020011;28;20025;-65
2022/03/02 09:13:03;;;;;;;60.30;34.28;;;;;;;3.15;91.71;102670.69;5022720;28;20029;-65
2022/03/02 09:15:29;;;;;;;65.65;35.90;;;;;;;3.18;91.54;102668.09;5021281;28;20040;-65
2022/03/02 09:17:55;;;;;;;64.68;36.20;;;;;;;3.23;91.49;102671.66;5023081;28;20053;-65
2022/03/02 09:20:23;;;;;;;59.92;34.40;;;;;;;3.26;91.58;102667.34;5022087;28;20691;-65
2022/03/02 09:22:50;;;;;;;63.80;34.10;;;;;;;3.31;91.68;102677.03;5023338;28;20109;-65
2022/03/02 09:25:16;;;;;;;58.45;33.88;;;;;;;3.36;91.48;102675.34;5022860;28;20037;-65
2022/03/02 09:27:42;;;;;;;60.65;35.35;;;;;;;3.40;91.64;102683.25;5022450;28;20031;-65
2022/03/02 09:30:09;;;;;;;61.97;35.58;;;;;;;3.46;91.27;102679.84;5024617;28;20048;-65
2022/03/02 09:32:37;;;;;;;59.17;34.85;;;;;;;3.51;91.16;102677.28;5027350;28;20021;-65
2022/03/02 09:35:03;;;;;;;58.20;34.25;;;;;;;3.55;91.24;102676.50;5024241;28;20503;-65
2022/03/02 09:37:34;;;;;;;60.85;33.80;;;;;;;3.59;91.01;102678.28;5022080;28;20065;-66
2022/03/02 09:40:00;;;;;;;63.28;34.33;;;;;;;3.63;90.79;102680.09;5023573;28;20045;-65
2022/03/02 09:42:30;;;;;;;60.92;33.55;;;;;;;3.69;90.77;102673.16;5020272;28;20113;-65
2022/03/02 09:45:07;;;;;;;58.70;33.95;;;;;;;3.72;90.56;102673.19;5022085;28;20033;-66
2022/03/02 09:47:46;;;;;;;63.15;34.15;;;;;;;3.77;90.63;102666.28;5023872;28;20488;-66
2022/03/02 09:50:14;;;;;;;58.40;34.22;;;;;;;3.82;90.63;102667.22;5022474;28;20036;-66
2022/03/02 09:52:42;;;;;;;55.65;32.70;;;;;;;3.86;90.76;102662.91;5023086;28;20585;-66
2022/03/02 09:55:13;;;;;;;60.55;34.47;;;;;;;3.90;90.48;102662.94;5026562;28;20083;-66
2022/03/02 09:57:42;;;;;;;58.95;33.97;;;;;;;3.94;90.05;102664.72;5024331;28;20068;-66
2022/03/02 10:00:09;;;;;;;58.15;32.65;;;;;;;4.00;90.26;102658.69;5021025;28;20037;-67
2022/03/02 10:02:36;;;;;;;60.20;34.65;;;;;;;4.05;90.24;102656.13;5007658;28;20469;-67
2022/03/02 10:05:16;;;;;;;62.78;34.25;;;;;;;4.08;90.49;102651.78;5025383;28;20144;-66
2022/03/02 10:07:46;;;;;;;60.72;33.75;;;;;;;4.14;90.31;102650.09;5025670;28;20503;-67
2022/03/02 10:10:15;;;;;;;59.75;34.72;;;;;;;4.19;90.24;102646.66;5017528;28;21584;-66
2022/03/02 10:12:41;;;;;;;56.33;33.38;;;;;;;4.25;89.77;102642.34;5024556;28;20538;-66
2022/03/02 10:15:10;;;;;;;56.30;32.70;;;;;;;4.30;89.76;102645.88;5024896;28;20023;-66
2022/03/02 10:17:37;;;;;;;60.80;32.85;;;;;;;4.34;90.22;102642.41;5025755;28;20156;-66
2022/03/02 10:20:06;;;;;;;57.25;32.17;;;;;;;4.39;90.00;102645.06;5024819;28;20041;-66
2022/03/02 10:22:50;;;;;;;55.30;32.65;;;;;;;4.42;89.58;102632.00;5026433;28;20103;-66
2022/03/02 10:25:17;;;;;;;54.40;32.22;;;;;;;4.47;89.13;102639.03;5025543;28;20128;-67
2022/03/02 10:27:55;;;;;;;60.05;34.08;;;;;;;4.53;89.15;102637.34;5023338;28;20086;-67
2022/03/02 10:30:20;;;;;;;59.35;32.70;;;;;;;4.57;89.27;102640.00;5025386;28;20086;-67
2022/03/02 10:32:48;;;;;;;54.10;31.38;;;;;;;4.61;89.37;102636.56;5025770;28;20075;-67
2022/03/02 10:35:15;;;;;;;55.65;32.42;;;;;;;4.65;89.16;102636.56;5024799;28;20582;-67
2022/03/02 10:37:50;;;;;;;55.15;32.53;;;;;;;4.69;88.94;102631.34;5022986;28;20053;-67
2022/03/02 10:40:17;;;;;;;56.40;32.70;;;;;;;4.73;88.95;102624.38;5021792;28;20037;-66
2022/03/02 10:42:51;;;;;;;54.92;31.67;;;;;;;4.77;88.52;102636.66;5025054;28;20124;-66
2022/03/02 10:45:24;;;;;;;54.95;31.80;;;;;;;4.82;88.94;102632.34;5024348;28;20032;-66
2022/03/02 10:47:57;;;;;;;52.15;30.98;;;;;;;4.86;88.84;102628.00;5024987;28;20384;-66
2022/03/02 10:50:26;;;;;;;53.38;31.92;;;;;;;4.91;88.04;102615.78;5024629;28;20029;-67
2022/03/02 10:52:54;;;;;;;55.60;31.60;;;;;;;4.95;88.27;102617.53;5023486;28;20029;-67
2022/03/02 10:55:20;;;;;;;48.97;31.15;;;;;;;5.01;88.48;102617.59;5023507;28;20038;-66
2022/03/02 10:57:48;;;;;;;52.65;31.92;;;;;;;5.06;87.85;102616.75;5024343;28;20033;-67
2022/03/02 11:00:17;;;;;;;50.97;30.67;;;;;;;5.10;88.14;102613.25;5023660;28;20044;-67
2022/03/02 11:02:48;;;;;;;52.97;31.48;;;;;;;5.14;87.56;102613.28;5011385;28;20406;-68
2022/03/02 11:05:18;;;;;;;52.38;31.08;;;;;;;5.21;87.80;102613.31;5021377;28;20518;-67
2022/03/02 11:07:45;;;;;;;54.75;30.52;;;;;;;5.26;87.83;102620.38;5018411;28;20536;-65
2022/03/02 11:10:16;;;;;;;47.97;29.98;;;;;;;5.32;87.50;102603.75;5021569;28;20041;-65
2022/03/02 11:12:44;;;;;;;48.70;29.33;;;;;;;5.36;87.28;102612.53;5023516;28;20052;-67
2022/03/02 11:15:11;;;;;;;52.67;29.27;;;;;;;5.41;87.19;102609.03;5023767;28;20329;-65